createdAt,value
2022-09-24T00:00:00.435Z,7.56
2022-09-24T00:01:00.459Z,7.61
2022-09-24T00:02:00.573Z,7.61
2022-09-24T00:03:00.539Z,7.66
2022-09-24T00:04:00.574Z,7.66
2022-09-24T00:05:00.371Z,7.69
2022-09-24T00:06:00.396Z,7.70
2022-09-24T00:07:00.354Z,7.70
2022-09-24T00:08:00.341Z,7.73
2022-09-24T00:09:00.337Z,7.75
2022-09-24T00:10:00.318Z,7.76
2022-09-24T00:11:00.348Z,7.76
2022-09-24T00:12:00.292Z,7.76
2022-09-24T00:13:00.261Z,7.77
2022-09-24T00:14:00.292Z,7.77
2022-09-24T00:15:00.244Z,7.82
2022-09-24T00:16:00.296Z,7.83
2022-09-24T00:17:00.218Z,7.85
2022-09-24T00:18:00.212Z,7.85
2022-09-24T00:19:00.202Z,7.83
2022-09-24T00:20:00.208Z,7.82
2022-09-24T00:21:00.212Z,7.83
2022-09-24T00:22:00.166Z,7.83
2022-09-24T00:23:00.174Z,7.87
2022-09-24T00:24:00.154Z,7.87
2022-09-24T00:25:00.154Z,7.87
2022-09-24T00:26:00.191Z,7.87
2022-09-24T00:27:00.133Z,7.88
2022-09-24T00:28:00.119Z,7.90
2022-09-24T00:29:00.092Z,7.88
2022-09-24T00:30:00.109Z,7.87
2022-09-24T00:31:00.159Z,7.90
2022-09-24T00:32:00.075Z,7.91
2022-09-24T00:33:00.075Z,7.91
2022-09-24T00:34:00.057Z,7.91
2022-09-24T00:35:00.030Z,7.94
2022-09-24T00:36:00.052Z,7.97
2022-09-24T00:37:00.036Z,8.00
2022-09-24T00:37:59.995Z,8.00
2022-09-24T00:39:00.003Z,8.03
2022-09-24T00:39:59.973Z,8.06
2022-09-24T00:41:00.005Z,8.08
2022-09-24T00:41:59.955Z,8.09
2022-09-24T00:42:59.938Z,8.09
2022-09-24T00:43:59.930Z,8.12
2022-09-24T00:44:59.916Z,8.15
2022-09-24T00:45:59.938Z,8.18
2022-09-24T00:46:59.955Z,8.19
2022-09-24T00:47:59.881Z,8.20
2022-09-24T00:48:59.859Z,8.20
2022-09-24T00:49:59.845Z,8.20
2022-09-24T00:50:59.883Z,8.19
2022-09-24T00:51:59.830Z,8.20
2022-09-24T00:52:59.839Z,8.20
2022-09-24T00:53:59.816Z,8.18
2022-09-24T00:54:59.817Z,8.18
2022-09-24T00:55:59.838Z,8.18
2022-09-24T00:56:59.793Z,8.19
2022-09-24T00:57:59.776Z,8.20
2022-09-24T00:58:59.756Z,8.26
2022-09-24T00:59:59.745Z,8.26
2022-09-24T01:00:59.835Z,8.26
2022-09-24T01:01:59.755Z,8.28
2022-09-24T01:02:59.709Z,8.27
2022-09-24T01:03:59.717Z,8.27
2022-09-24T01:04:59.712Z,8.27
2022-09-24T01:05:59.724Z,8.27
2022-09-24T01:06:59.682Z,8.24
2022-09-24T01:07:59.645Z,8.24
2022-09-24T01:08:59.643Z,8.26
2022-09-24T01:09:59.630Z,8.24
2022-09-24T01:10:59.675Z,8.28
2022-09-24T01:11:59.608Z,8.27
2022-09-24T01:12:59.614Z,8.28
2022-09-24T01:13:59.585Z,8.30
2022-09-24T01:14:59.572Z,8.28
2022-09-24T01:15:59.625Z,8.31
2022-09-24T01:16:59.552Z,8.33
2022-09-24T01:17:59.583Z,8.33
2022-09-24T01:18:59.540Z,8.33
2022-09-24T01:19:59.497Z,8.34
2022-09-24T01:20:59.535Z,8.33
2022-09-24T01:21:59.486Z,8.33
2022-09-24T01:22:59.476Z,8.34
2022-09-24T01:23:59.472Z,8.31
2022-09-24T01:24:59.464Z,8.34
2022-09-24T01:25:59.495Z,8.33
2022-09-24T01:26:59.438Z,8.33
2022-09-24T01:27:59.442Z,8.36
2022-09-24T01:28:59.423Z,8.34
2022-09-24T01:29:59.406Z,8.33
2022-09-24T01:30:59.565Z,8.33
2022-09-24T01:31:59.392Z,8.33
2022-09-24T01:32:59.376Z,8.34
2022-09-24T01:33:59.376Z,8.36
2022-09-24T01:34:59.353Z,8.37
2022-09-24T01:35:59.374Z,8.37
2022-09-24T01:36:59.339Z,8.34
2022-09-24T01:37:59.319Z,8.34
2022-09-24T01:38:59.310Z,8.31
2022-09-24T01:39:59.290Z,8.31
2022-09-24T01:40:59.320Z,8.30
2022-09-24T01:41:59.267Z,8.27
2022-09-24T01:42:59.254Z,8.27
2022-09-24T01:43:59.275Z,8.27
2022-09-24T01:44:59.224Z,8.27
2022-09-24T01:45:59.265Z,8.28
2022-09-24T01:46:59.294Z,8.28
2022-09-24T01:47:59.189Z,8.30
2022-09-24T01:48:59.196Z,8.30
2022-09-24T01:49:59.176Z,8.31
2022-09-24T01:50:59.196Z,8.30
2022-09-24T01:51:59.134Z,8.31
2022-09-24T01:52:59.130Z,8.30
2022-09-24T01:53:59.109Z,8.30
2022-09-24T01:54:59.123Z,8.31
2022-09-24T01:55:59.138Z,8.34
2022-09-24T01:56:59.095Z,8.38
2022-09-24T01:57:59.092Z,8.37
2022-09-24T01:58:59.078Z,8.36
2022-09-24T01:59:59.070Z,8.36
2022-09-24T02:00:59.161Z,8.36
2022-09-24T02:01:59.103Z,8.34
2022-09-24T02:02:59.051Z,8.33
2022-09-24T02:03:59.014Z,8.33
2022-09-24T02:04:58.999Z,8.30
2022-09-24T02:05:59.026Z,8.30
2022-09-24T02:06:58.992Z,8.27
2022-09-24T02:07:58.979Z,8.28
2022-09-24T02:08:58.959Z,8.28
2022-09-24T02:09:58.952Z,8.27
2022-09-24T02:10:58.981Z,8.27
2022-09-24T02:11:58.927Z,8.27
2022-09-24T02:12:58.912Z,8.31
2022-09-24T02:13:58.890Z,8.33
2022-09-24T02:14:58.899Z,8.33
2022-09-24T02:15:58.985Z,8.30
2022-09-24T02:16:58.870Z,8.33
2022-09-24T02:17:58.850Z,8.33
2022-09-24T02:18:58.855Z,8.31
2022-09-24T02:19:58.834Z,8.31
2022-09-24T02:20:58.862Z,8.31
2022-09-24T02:21:58.793Z,8.33
2022-09-24T02:22:58.807Z,8.36
2022-09-24T02:23:58.779Z,8.37
2022-09-24T02:24:58.760Z,8.36
2022-09-24T02:25:58.783Z,8.37
2022-09-24T02:26:58.736Z,8.38
2022-09-24T02:27:58.744Z,8.41
2022-09-24T02:28:58.719Z,8.37
2022-09-24T02:29:58.717Z,8.42
2022-09-24T02:30:58.768Z,8.42
2022-09-24T02:31:58.688Z,8.44
2022-09-24T02:32:58.696Z,8.42
2022-09-24T02:33:58.664Z,8.44
2022-09-24T02:34:58.668Z,8.44
2022-09-24T02:35:58.674Z,8.45
2022-09-24T02:36:58.635Z,8.44
2022-09-24T02:38:01.651Z,8.42
2022-09-24T02:38:59.620Z,8.42
2022-09-24T02:39:58.604Z,8.45
2022-09-24T02:40:58.723Z,8.42
2022-09-24T02:41:58.597Z,8.42
2022-09-24T02:42:58.575Z,8.38
2022-09-24T02:43:58.543Z,8.41
2022-09-24T02:44:58.554Z,8.42
2022-09-24T02:45:58.573Z,8.48
2022-09-24T02:46:58.609Z,8.49
2022-09-24T02:47:58.518Z,8.48
2022-09-24T02:48:58.514Z,8.49
2022-09-24T02:49:58.501Z,8.51
2022-09-24T02:50:58.512Z,8.49
2022-09-24T02:51:58.471Z,8.49
2022-09-24T02:52:58.454Z,8.48
2022-09-24T02:53:58.455Z,8.46
2022-09-24T02:54:58.435Z,8.45
2022-09-24T02:55:58.411Z,8.45
2022-09-24T02:56:58.445Z,8.46
2022-09-24T02:57:58.381Z,8.48
2022-09-24T02:58:58.396Z,8.45
2022-09-24T02:59:58.372Z,8.44
2022-09-24T03:00:58.410Z,8.42
2022-09-24T03:01:58.497Z,8.41
2022-09-24T03:02:58.394Z,8.41
2022-09-24T03:03:58.323Z,8.41
2022-09-24T03:04:58.318Z,8.41
2022-09-24T03:05:58.315Z,8.41
2022-09-24T03:06:58.341Z,8.42
2022-09-24T03:07:58.283Z,8.45
2022-09-24T03:08:58.279Z,8.44
2022-09-24T03:09:58.266Z,8.44
2022-09-24T03:10:58.265Z,8.42
2022-09-24T03:11:58.280Z,8.42
2022-09-24T03:12:58.247Z,8.41
2022-09-24T03:13:58.216Z,8.41
2022-09-24T03:14:58.218Z,8.38
2022-09-24T03:15:58.241Z,8.36
2022-09-24T03:16:58.224Z,8.36
2022-09-24T03:17:58.175Z,8.37
2022-09-24T03:18:58.163Z,8.34
2022-09-24T03:19:58.155Z,8.33
2022-09-24T03:20:58.138Z,8.34
2022-09-24T03:21:58.149Z,8.34
2022-09-24T03:22:58.119Z,8.33
2022-09-24T03:23:58.112Z,8.33
2022-09-24T03:24:58.088Z,8.34
2022-09-24T03:25:59.014Z,8.31
2022-09-24T03:26:58.097Z,8.34
2022-09-24T03:27:58.033Z,8.33
2022-09-24T03:28:58.027Z,8.30
2022-09-24T03:29:58.019Z,8.31
2022-09-24T03:30:58.049Z,8.28
2022-09-24T03:31:58.153Z,8.26
2022-09-24T03:32:58.016Z,8.20
2022-09-24T03:33:57.993Z,8.18
2022-09-24T03:34:57.971Z,8.15
2022-09-24T03:35:57.947Z,8.12
2022-09-24T03:36:58.002Z,8.08
2022-09-24T03:37:57.954Z,8.06
2022-09-24T03:38:57.939Z,8.09
2022-09-24T03:39:57.941Z,8.10
2022-09-24T03:40:58.021Z,8.13
2022-09-24T03:41:57.937Z,8.12
2022-09-24T03:42:57.896Z,8.12
2022-09-24T03:43:57.873Z,8.09
2022-09-24T03:44:57.878Z,8.06
2022-09-24T03:45:57.845Z,8.05
2022-09-24T03:46:57.950Z,7.97
2022-09-24T03:47:57.835Z,7.98
2022-09-24T03:48:57.812Z,8.00
2022-09-24T03:49:57.812Z,8.00
2022-09-24T03:50:57.799Z,7.98
2022-09-24T03:51:57.822Z,7.94
2022-09-24T03:52:57.783Z,7.91
2022-09-24T03:53:57.775Z,7.90
2022-09-24T03:54:57.758Z,7.88
2022-09-24T03:55:57.742Z,7.90
2022-09-24T03:56:57.753Z,7.91
2022-09-24T03:57:57.711Z,7.91
2022-09-24T03:58:57.699Z,7.91
2022-09-24T03:59:57.675Z,7.93
2022-09-24T04:00:57.676Z,7.93
2022-09-24T04:01:57.758Z,7.93
2022-09-24T04:02:57.701Z,7.93
2022-09-24T04:03:57.654Z,7.93
2022-09-24T04:04:57.637Z,7.91
2022-09-24T04:05:57.626Z,7.91
2022-09-24T04:06:57.662Z,7.91
2022-09-24T04:07:57.611Z,7.93
2022-09-24T04:08:57.607Z,7.94
2022-09-24T04:09:57.587Z,7.94
2022-09-24T04:10:57.566Z,7.95
2022-09-24T04:11:57.587Z,7.97
2022-09-24T04:12:57.537Z,7.95
2022-09-24T04:13:57.531Z,7.95
2022-09-24T04:14:57.523Z,7.95
2022-09-24T04:15:57.529Z,7.95
2022-09-24T04:16:57.570Z,7.97
2022-09-24T04:17:57.495Z,7.95
2022-09-24T04:18:57.475Z,7.95
2022-09-24T04:19:57.452Z,8.00
2022-09-24T04:20:57.442Z,8.03
2022-09-24T04:21:57.436Z,8.01
2022-09-24T04:22:57.469Z,8.03
2022-09-24T04:23:57.419Z,8.03
2022-09-24T04:24:57.404Z,8.09
2022-09-24T04:25:57.391Z,8.10
2022-09-24T04:26:57.381Z,8.10
2022-09-24T04:27:57.401Z,8.10
2022-09-24T04:28:57.369Z,8.10
2022-09-24T04:29:57.344Z,8.08
2022-09-24T04:30:57.429Z,8.08
2022-09-24T04:31:57.310Z,8.03
2022-09-24T04:32:57.345Z,8.03
2022-09-24T04:33:57.290Z,8.03
2022-09-24T04:34:57.293Z,8.03
2022-09-24T04:35:57.290Z,8.03
2022-09-24T04:36:57.274Z,8.03
2022-09-24T04:37:57.289Z,8.03
2022-09-24T04:38:57.248Z,8.00
2022-09-24T04:39:57.243Z,7.98
2022-09-24T04:40:57.258Z,8.01
2022-09-24T04:41:57.200Z,8.03
2022-09-24T04:42:57.235Z,8.01
2022-09-24T04:43:57.196Z,8.05
2022-09-24T04:44:57.183Z,8.05
2022-09-24T04:45:57.161Z,8.08
2022-09-24T04:46:57.250Z,8.09
2022-09-24T04:47:57.178Z,8.09
2022-09-24T04:48:57.128Z,8.10
2022-09-24T04:49:57.112Z,8.10
2022-09-24T04:50:57.113Z,8.12
2022-09-24T04:51:57.105Z,8.16
2022-09-24T04:52:57.122Z,8.18
2022-09-24T04:53:57.095Z,8.23
2022-09-24T04:54:57.058Z,8.23
2022-09-24T04:55:57.052Z,8.30
2022-09-24T04:56:57.038Z,8.31
2022-09-24T04:57:57.069Z,8.33
2022-09-24T04:58:57.015Z,8.34
2022-09-24T04:59:57.015Z,8.34
2022-09-24T05:00:56.998Z,8.36
2022-09-24T05:01:57.123Z,8.34
2022-09-24T05:02:57.047Z,8.34
2022-09-24T05:03:56.967Z,8.36
2022-09-24T05:04:56.946Z,8.38
2022-09-24T05:05:56.932Z,8.41
2022-09-24T05:06:56.921Z,8.42
2022-09-24T05:07:56.997Z,8.45
2022-09-24T05:08:56.927Z,8.49
2022-09-24T05:09:56.899Z,8.51
2022-09-24T05:10:56.873Z,8.52
2022-09-24T05:11:56.892Z,8.55
2022-09-24T05:12:56.914Z,8.55
2022-09-24T05:13:56.870Z,8.58
2022-09-24T05:14:56.836Z,8.60
2022-09-24T05:15:56.873Z,8.63
2022-09-24T05:16:56.796Z,8.66
2022-09-24T05:17:56.811Z,8.69
2022-09-24T05:18:56.824Z,8.71
2022-09-24T05:19:56.782Z,8.74
2022-09-24T05:20:56.772Z,8.79
2022-09-24T05:21:56.846Z,8.82
2022-09-24T05:22:56.744Z,8.87
2022-09-24T05:23:56.760Z,8.91
2022-09-24T05:24:56.723Z,8.94
2022-09-24T05:25:56.722Z,8.97
2022-09-24T05:26:56.685Z,9.00
2022-09-24T05:27:56.735Z,9.04
2022-09-24T05:28:56.671Z,9.10
2022-09-24T05:29:56.681Z,9.13
2022-09-24T05:30:56.720Z,9.18
2022-09-24T05:31:56.642Z,9.21
2022-09-24T05:32:56.675Z,9.25
2022-09-24T05:33:56.623Z,9.29
2022-09-24T05:34:56.618Z,9.32
2022-09-24T05:35:56.591Z,9.39
2022-09-24T05:36:56.574Z,9.44
2022-09-24T05:37:56.605Z,9.48
2022-09-24T05:38:56.588Z,9.56
2022-09-24T05:39:56.565Z,9.62
2022-09-24T05:40:56.634Z,9.68
2022-09-24T05:41:56.543Z,9.74
2022-09-24T05:42:56.564Z,9.77
2022-09-24T05:43:56.524Z,9.83
2022-09-24T05:44:56.502Z,9.87
2022-09-24T05:45:56.507Z,9.91
2022-09-24T05:46:56.559Z,9.92
2022-09-24T05:47:56.521Z,9.92
2022-09-24T05:48:56.468Z,9.86
2022-09-24T05:49:56.460Z,9.87
2022-09-24T05:50:56.438Z,9.80
2022-09-24T05:51:56.427Z,9.76
2022-09-24T05:52:56.449Z,9.77
2022-09-24T05:53:56.393Z,9.82
2022-09-24T05:54:56.386Z,9.76
2022-09-24T05:55:56.374Z,9.73
2022-09-24T05:56:56.364Z,9.73
2022-09-24T05:57:56.348Z,9.73
2022-09-24T05:58:56.370Z,9.77
2022-09-24T05:59:56.319Z,9.80
2022-09-24T06:00:56.322Z,9.84
2022-09-24T06:01:56.385Z,9.83
2022-09-24T06:02:56.354Z,9.82
2022-09-24T06:03:56.314Z,9.83
2022-09-24T06:04:56.264Z,9.77
2022-09-24T06:05:56.264Z,9.73
2022-09-24T06:06:56.251Z,9.69
2022-09-24T06:07:56.239Z,9.68
2022-09-24T06:08:56.257Z,9.68
2022-09-24T06:09:56.205Z,9.72
2022-09-24T06:10:56.203Z,9.73
2022-09-24T06:11:56.190Z,9.77
2022-09-24T06:12:56.180Z,9.82
2022-09-24T06:13:56.214Z,9.83
2022-09-24T06:14:56.151Z,9.84
2022-09-24T06:15:56.205Z,9.79
2022-09-24T06:16:56.120Z,9.82
2022-09-24T06:17:56.129Z,9.82
2022-09-24T06:18:56.141Z,9.86
2022-09-24T06:19:56.107Z,9.92
2022-09-24T06:20:56.090Z,9.97
2022-09-24T06:21:56.072Z,9.95
2022-09-24T06:22:56.100Z,10.01
2022-09-24T06:23:56.053Z,10.07
2022-09-24T06:24:56.046Z,10.15
2022-09-24T06:25:56.040Z,10.19
2022-09-24T06:26:56.009Z,10.22
2022-09-24T06:27:56.071Z,10.22
2022-09-24T06:28:59.530Z,10.20
2022-09-24T06:29:56.992Z,10.22
2022-09-24T06:30:56.018Z,10.31
2022-09-24T06:31:55.994Z,10.33
2022-09-24T06:32:55.954Z,10.37
2022-09-24T06:33:55.987Z,10.41
2022-09-24T06:34:59.177Z,10.44
2022-09-24T06:35:55.930Z,10.54
2022-09-24T06:36:55.901Z,10.59
2022-09-24T06:37:55.891Z,10.61
2022-09-24T06:38:55.915Z,10.68
2022-09-24T06:39:55.874Z,10.72
2022-09-24T06:40:55.909Z,10.76
2022-09-24T06:41:55.847Z,10.84
2022-09-24T06:42:55.832Z,10.89
2022-09-24T06:43:55.863Z,10.94
2022-09-24T06:44:55.818Z,11.00
2022-09-24T06:45:55.811Z,11.05
2022-09-24T06:46:55.843Z,11.11
2022-09-24T06:47:55.777Z,11.19
2022-09-24T06:48:55.800Z,11.26
2022-09-24T06:49:55.763Z,11.32
2022-09-24T06:50:55.747Z,11.35
2022-09-24T06:51:55.743Z,11.36
2022-09-24T06:52:55.716Z,11.43
2022-09-24T06:53:55.743Z,11.45
2022-09-24T06:54:55.695Z,11.51
2022-09-24T06:55:55.700Z,11.55
2022-09-24T06:56:55.687Z,11.51
2022-09-24T06:57:55.717Z,11.57
2022-09-24T06:58:55.652Z,11.55
2022-09-24T06:59:55.656Z,11.60
2022-09-24T07:00:55.672Z,11.62
2022-09-24T07:01:55.673Z,11.63
2022-09-24T07:02:55.603Z,11.63
2022-09-24T07:03:55.638Z,11.66
2022-09-24T07:04:55.585Z,11.72
2022-09-24T07:05:55.584Z,11.78
2022-09-24T07:06:55.554Z,11.78
2022-09-24T07:07:55.562Z,11.86
2022-09-24T07:08:55.593Z,11.81
2022-09-24T07:09:55.530Z,11.84
2022-09-24T07:10:55.525Z,11.84
2022-09-24T07:11:55.513Z,11.88
2022-09-24T07:12:55.518Z,11.83
2022-09-24T07:13:55.522Z,11.83
2022-09-24T07:14:55.465Z,11.86
2022-09-24T07:15:55.489Z,11.84
2022-09-24T07:16:55.467Z,11.87
2022-09-24T07:17:55.474Z,11.95
2022-09-24T07:18:55.468Z,11.99
2022-09-24T07:19:55.446Z,12.06
2022-09-24T07:20:55.407Z,12.15
2022-09-24T07:21:55.401Z,12.20
2022-09-24T07:22:55.424Z,12.28
2022-09-24T07:23:58.611Z,12.25
2022-09-24T07:24:55.360Z,12.24
2022-09-24T07:25:55.357Z,12.28
2022-09-24T07:26:55.336Z,12.40
2022-09-24T07:27:55.367Z,12.50
2022-09-24T07:28:55.313Z,12.65
2022-09-24T07:29:55.311Z,12.73
2022-09-24T07:30:55.357Z,12.79
2022-09-24T07:31:55.286Z,12.76
2022-09-24T07:32:55.316Z,12.73
2022-09-24T07:33:55.258Z,12.76
2022-09-24T07:34:55.248Z,12.87
2022-09-24T07:35:55.243Z,12.95
2022-09-24T07:36:55.217Z,12.82
2022-09-24T07:37:55.259Z,12.82
2022-09-24T07:38:55.199Z,12.80
2022-09-24T07:39:55.218Z,12.85
2022-09-24T07:40:55.237Z,12.90
2022-09-24T07:41:55.168Z,12.94
2022-09-24T07:42:55.212Z,12.94
2022-09-24T07:43:55.151Z,12.91
2022-09-24T07:44:55.128Z,12.97
2022-09-24T07:45:55.128Z,13.12
2022-09-24T07:46:55.164Z,13.12
2022-09-24T07:47:55.131Z,13.25
2022-09-24T07:48:55.077Z,13.30
2022-09-24T07:49:55.088Z,13.16
2022-09-24T07:50:55.059Z,13.03
2022-09-24T07:51:55.074Z,13.04
2022-09-24T07:52:55.043Z,13.12
2022-09-24T07:53:55.058Z,13.12
2022-09-24T07:54:55.020Z,13.15
2022-09-24T07:55:55.018Z,13.08
2022-09-24T07:56:54.999Z,13.08
2022-09-24T07:57:54.994Z,13.11
2022-09-24T07:58:55.014Z,13.13
2022-09-24T07:59:54.968Z,13.16
2022-09-24T08:00:54.948Z,13.22
2022-09-24T08:01:54.994Z,13.20
2022-09-24T08:02:54.976Z,13.23
2022-09-24T08:03:55.003Z,13.31
2022-09-24T08:04:54.912Z,13.28
2022-09-24T08:05:54.897Z,13.27
2022-09-24T08:06:54.878Z,13.39
2022-09-24T08:07:54.880Z,13.46
2022-09-24T08:08:54.895Z,13.53
2022-09-24T08:09:54.863Z,13.53
2022-09-24T08:10:54.849Z,13.53
2022-09-24T08:11:54.843Z,13.54
2022-09-24T08:12:54.808Z,13.63
2022-09-24T08:13:54.846Z,13.75
2022-09-24T08:14:54.788Z,13.90
2022-09-24T08:15:54.828Z,13.92
2022-09-24T08:16:54.778Z,14.04
2022-09-24T08:17:54.775Z,14.14
2022-09-24T08:18:54.793Z,14.22
2022-09-24T08:19:54.760Z,14.23
2022-09-24T08:20:54.725Z,14.40
2022-09-24T08:21:54.705Z,14.62
2022-09-24T08:22:54.697Z,14.78
2022-09-24T08:23:54.728Z,14.92
2022-09-24T08:24:54.685Z,15.10
2022-09-24T08:25:54.687Z,15.19
2022-09-24T08:26:54.652Z,15.11
2022-09-24T08:27:54.649Z,15.15
2022-09-24T08:28:54.675Z,15.28
2022-09-24T08:29:54.618Z,15.49
2022-09-24T08:30:54.656Z,15.92
2022-09-24T08:31:54.601Z,16.39
2022-09-24T08:32:54.587Z,16.64
2022-09-24T08:33:54.621Z,16.91
2022-09-24T08:34:54.589Z,17.16
2022-09-24T08:35:54.563Z,16.99
2022-09-24T08:36:54.539Z,17.19
2022-09-24T08:37:54.544Z,17.44
2022-09-24T08:38:54.567Z,17.78
2022-09-24T08:39:54.514Z,18.07
2022-09-24T08:40:54.546Z,18.11
2022-09-24T08:41:54.493Z,18.11
2022-09-24T08:42:54.475Z,18.22
2022-09-24T08:43:54.498Z,18.28
2022-09-24T08:44:54.450Z,18.66
2022-09-24T08:45:54.438Z,19.36
2022-09-24T08:46:54.496Z,19.66
2022-09-24T08:47:54.451Z,20.10
2022-09-24T08:48:54.448Z,20.21
2022-09-24T08:49:54.398Z,19.33
2022-09-24T08:50:54.386Z,19.00
2022-09-24T08:51:54.384Z,19.00
2022-09-24T08:52:54.372Z,19.49
2022-09-24T08:53:54.400Z,19.22
2022-09-24T08:54:54.335Z,19.55
2022-09-24T08:55:54.333Z,20.10
2022-09-24T08:56:54.315Z,20.58
2022-09-24T08:57:54.304Z,20.67
2022-09-24T08:58:54.335Z,21.06
2022-09-24T08:59:54.294Z,21.27
2022-09-24T09:00:54.269Z,21.42
2022-09-24T09:01:54.392Z,21.46
2022-09-24T09:02:54.300Z,21.52
2022-09-24T09:03:54.246Z,21.42
2022-09-24T09:04:54.266Z,21.30
2022-09-24T09:05:54.219Z,21.05
2022-09-24T09:06:54.204Z,20.93
2022-09-24T09:07:54.181Z,21.02
2022-09-24T09:09:06.877Z,20.70
2022-09-24T09:09:55.165Z,20.95
2022-09-24T09:10:54.164Z,21.20
2022-09-24T09:11:54.160Z,21.33
2022-09-24T09:12:54.145Z,21.36
2022-09-24T09:13:54.173Z,21.11
2022-09-24T09:14:54.108Z,21.00
2022-09-24T09:15:54.180Z,20.82
2022-09-24T09:16:54.093Z,20.36
2022-09-24T09:17:54.085Z,20.04
2022-09-24T09:18:54.065Z,19.40
2022-09-24T09:19:54.098Z,19.39
2022-09-24T09:20:54.048Z,19.39
2022-09-24T09:21:54.045Z,19.45
2022-09-24T09:22:54.039Z,19.48
2022-09-24T09:23:54.021Z,19.39
2022-09-24T09:24:54.047Z,19.41
2022-09-24T09:25:53.996Z,19.70
2022-09-24T09:26:54.008Z,20.00
2022-09-24T09:27:53.961Z,20.25
2022-09-24T09:28:53.957Z,20.31
2022-09-24T09:29:53.983Z,20.00
2022-09-24T09:30:53.961Z,20.00
2022-09-24T09:31:56.470Z,19.96
2022-09-24T09:32:53.954Z,20.07
2022-09-24T09:33:53.903Z,20.13
2022-09-24T09:34:53.933Z,20.18
2022-09-24T09:35:53.874Z,20.26
2022-09-24T09:36:53.884Z,20.24
2022-09-24T09:37:53.859Z,20.32
2022-09-24T09:38:53.854Z,20.34
2022-09-24T09:39:53.869Z,20.29
2022-09-24T09:40:53.901Z,20.03
2022-09-24T09:41:53.813Z,19.44
2022-09-24T09:42:53.800Z,19.29
2022-09-24T09:43:53.829Z,19.29
2022-09-24T09:44:53.779Z,19.19
2022-09-24T09:45:53.758Z,18.95
2022-09-24T09:46:53.798Z,18.59
2022-09-24T09:47:53.746Z,18.18
2022-09-24T09:48:53.761Z,18.00
2022-09-24T09:49:53.728Z,18.04
2022-09-24T09:50:53.708Z,18.15
2022-09-24T09:51:53.697Z,18.35
2022-09-24T09:52:53.686Z,18.16
2022-09-24T09:53:53.704Z,18.13
2022-09-24T09:54:53.666Z,18.18
2022-09-24T09:55:53.651Z,18.40
2022-09-24T09:56:53.629Z,18.53
2022-09-24T09:57:53.643Z,18.77
2022-09-24T09:58:53.653Z,18.88
2022-09-24T09:59:53.604Z,19.14
2022-09-24T10:00:53.598Z,19.33
2022-09-24T10:01:53.634Z,19.45
2022-09-24T10:02:53.715Z,19.63
2022-09-24T10:03:53.549Z,19.86
2022-09-24T10:04:53.579Z,20.07
2022-09-24T10:05:53.525Z,20.22
2022-09-24T10:06:53.544Z,20.36
2022-09-24T10:07:53.516Z,20.48
2022-09-24T10:08:53.537Z,20.56
2022-09-24T10:09:53.486Z,20.36
2022-09-24T10:10:53.488Z,20.22
2022-09-24T10:11:53.467Z,19.95
2022-09-24T10:12:53.458Z,19.99
2022-09-24T10:13:53.500Z,19.92
2022-09-24T10:14:53.440Z,20.06
2022-09-24T10:15:53.494Z,20.16
2022-09-24T10:16:53.411Z,20.34
2022-09-24T10:17:53.408Z,20.50
2022-09-24T10:18:53.455Z,20.25
2022-09-24T10:19:53.379Z,20.32
2022-09-24T10:20:53.369Z,20.13
2022-09-24T10:21:53.359Z,20.25
2022-09-24T10:22:53.366Z,20.24
2022-09-24T10:23:53.380Z,19.99
2022-09-24T10:24:53.326Z,20.19
2022-09-24T10:25:53.313Z,20.26
2022-09-24T10:26:53.301Z,20.37
2022-09-24T10:27:53.303Z,20.32
2022-09-24T10:28:53.281Z,19.92
2022-09-24T10:29:53.302Z,19.45
2022-09-24T10:30:53.316Z,19.26
2022-09-24T10:31:53.261Z,19.41
2022-09-24T10:32:53.243Z,19.59
2022-09-24T10:33:53.268Z,19.95
2022-09-24T10:34:53.203Z,20.22
2022-09-24T10:35:53.194Z,20.51
2022-09-24T10:36:53.180Z,21.24
2022-09-24T10:37:53.178Z,21.69
2022-09-24T10:38:53.207Z,21.99
2022-09-24T10:39:53.157Z,22.59
2022-09-24T10:40:53.203Z,23.17
2022-09-24T10:41:53.145Z,23.47
2022-09-24T10:42:53.137Z,23.88
2022-09-24T10:43:53.265Z,23.25
2022-09-24T10:44:53.138Z,22.83
2022-09-24T10:45:53.085Z,22.98
2022-09-24T10:46:53.139Z,23.32
2022-09-24T10:47:53.065Z,23.27
2022-09-24T10:48:53.064Z,22.30
2022-09-24T10:49:53.091Z,22.02
2022-09-24T10:50:53.031Z,21.88
2022-09-24T10:51:53.030Z,21.61
2022-09-24T10:52:53.017Z,21.54
2022-09-24T10:53:53.000Z,21.50
2022-09-24T10:54:53.031Z,21.60
2022-09-24T10:55:52.984Z,21.62
2022-09-24T10:56:52.970Z,21.60
2022-09-24T10:57:52.957Z,21.52
2022-09-24T10:58:52.957Z,21.70
2022-09-24T10:59:52.975Z,20.93
2022-09-24T11:00:52.938Z,20.62
2022-09-24T11:01:53.010Z,20.43
2022-09-24T11:02:52.934Z,20.59
2022-09-24T11:03:52.936Z,21.07
2022-09-24T11:04:52.919Z,21.22
2022-09-24T11:05:52.879Z,21.32
2022-09-24T11:06:52.856Z,21.30
2022-09-24T11:07:52.847Z,21.11
2022-09-24T11:08:52.834Z,20.78
2022-09-24T11:09:52.858Z,20.67
2022-09-24T11:10:52.810Z,20.43
2022-09-24T11:11:52.810Z,20.50
2022-09-24T11:12:52.792Z,20.63
2022-09-24T11:13:52.786Z,20.44
2022-09-24T11:14:52.813Z,20.70
2022-09-24T11:15:52.821Z,20.96
2022-09-24T11:16:52.754Z,20.92
2022-09-24T11:17:52.743Z,21.15
2022-09-24T11:18:52.773Z,21.42
2022-09-24T11:19:52.720Z,21.79
2022-09-24T11:20:52.714Z,22.54
2022-09-24T11:21:52.694Z,23.61
2022-09-24T11:22:52.713Z,24.58
2022-09-24T11:23:52.716Z,25.18
2022-09-24T11:24:52.666Z,24.80
2022-09-24T11:25:52.645Z,25.26
2022-09-24T11:26:52.661Z,26.06
2022-09-24T11:27:52.624Z,25.17
2022-09-24T11:28:52.664Z,24.48
2022-09-24T11:29:52.607Z,24.08
2022-09-24T11:30:52.683Z,23.74
2022-09-24T11:31:52.574Z,23.51
2022-09-24T11:32:52.576Z,23.32
2022-09-24T11:33:52.570Z,23.65
2022-09-24T11:34:52.593Z,24.06
2022-09-24T11:35:52.543Z,24.58
2022-09-24T11:36:52.539Z,24.88
2022-09-24T11:37:52.534Z,25.25
2022-09-24T11:38:52.517Z,25.90
2022-09-24T11:39:52.529Z,25.73
2022-09-24T11:40:52.517Z,24.91
2022-09-24T11:41:52.464Z,24.39
2022-09-24T11:42:52.456Z,23.47
2022-09-24T11:43:52.492Z,23.59
2022-09-24T11:44:52.441Z,24.99
2022-09-24T11:45:52.430Z,25.66
2022-09-24T11:46:52.449Z,25.87
2022-09-24T11:47:52.413Z,26.80
2022-09-24T11:48:52.477Z,26.58
2022-09-24T11:49:52.376Z,26.77
2022-09-24T11:50:52.383Z,26.66
2022-09-24T11:51:52.367Z,26.73
2022-09-24T11:52:52.363Z,26.58
2022-09-24T11:53:52.388Z,27.03
2022-09-24T11:54:52.348Z,27.45
2022-09-24T11:55:52.335Z,27.59
2022-09-24T11:56:52.318Z,27.67
2022-09-24T11:57:52.313Z,28.08
2022-09-24T11:58:52.342Z,28.29
2022-09-24T11:59:52.285Z,27.92
2022-09-24T12:00:52.267Z,28.17
2022-09-24T12:01:52.342Z,28.48
2022-09-24T12:02:52.303Z,27.74
2022-09-24T12:03:52.282Z,27.51
2022-09-24T12:04:52.228Z,27.89
2022-09-24T12:05:52.217Z,27.80
2022-09-24T12:06:52.219Z,27.36
2022-09-24T12:07:52.196Z,27.68
2022-09-24T12:08:52.219Z,28.04
2022-09-24T12:09:52.165Z,28.51
2022-09-24T12:10:52.173Z,29.02
2022-09-24T12:11:52.149Z,29.22
2022-09-24T12:12:52.138Z,27.90
2022-09-24T12:13:52.187Z,27.96
2022-09-24T12:14:52.132Z,28.10
2022-09-24T12:15:52.141Z,26.62
2022-09-24T12:16:52.095Z,26.21
2022-09-24T12:17:52.075Z,26.34
2022-09-24T12:18:52.110Z,26.31
2022-09-24T12:19:52.058Z,26.51
2022-09-24T12:20:52.059Z,26.97
2022-09-24T12:21:52.032Z,27.22
2022-09-24T12:22:52.041Z,27.49
2022-09-24T12:23:52.018Z,27.25
2022-09-24T12:24:52.054Z,26.90
2022-09-24T12:25:51.985Z,26.34
2022-09-24T12:26:51.995Z,26.26
2022-09-24T12:27:51.982Z,26.56
2022-09-24T12:28:51.968Z,26.85
2022-09-24T12:29:51.992Z,27.15
2022-09-24T12:30:52.000Z,27.49
2022-09-24T12:31:51.973Z,27.49
2022-09-24T12:32:51.938Z,27.65
2022-09-24T12:33:51.985Z,27.93
2022-09-24T12:34:51.908Z,28.29
2022-09-24T12:35:51.881Z,28.38
2022-09-24T12:36:56.603Z,28.75
2022-09-24T12:37:52.868Z,28.67
2022-09-24T12:38:51.898Z,28.63
2022-09-24T12:39:51.846Z,27.26
2022-09-24T12:40:51.956Z,26.68
2022-09-24T12:41:51.819Z,25.62
2022-09-24T12:42:51.814Z,25.21
2022-09-24T12:43:51.841Z,25.99
2022-09-24T12:44:51.792Z,26.62
2022-09-24T12:45:51.777Z,27.08
2022-09-24T12:46:51.832Z,27.29
2022-09-24T12:47:51.740Z,27.44
2022-09-24T12:48:51.796Z,27.47
2022-09-24T12:49:51.718Z,27.59
2022-09-24T12:50:51.716Z,27.54
2022-09-24T12:51:51.703Z,27.27
2022-09-24T12:52:51.702Z,27.14
2022-09-24T12:53:51.721Z,26.88
2022-09-24T12:54:51.684Z,26.13
2022-09-24T12:55:51.671Z,25.40
2022-09-24T12:56:51.662Z,25.60
2022-09-24T12:57:51.676Z,25.98
2022-09-24T12:58:51.625Z,25.98
2022-09-24T12:59:51.650Z,26.29
2022-09-24T13:00:51.613Z,26.59
2022-09-24T13:01:51.647Z,27.10
2022-09-24T13:02:51.693Z,27.21
2022-09-24T13:03:51.617Z,27.40
2022-09-24T13:04:51.563Z,27.59